sensor_id;sensor_type;location;lat;lon;timestamp;temperature;humidity
9151;DHT22;4610;50.006;7.490;2023-04-01T00:00:23;8.70;99.90
9151;DHT22;4610;50.006;7.490;2023-04-01T00:02:50;8.80;99.90
9151;DHT22;4610;50.006;7.490;2023-04-01T00:05:17;8.80;99.90
9151;DHT22;4610;50.006;7.490;2023-04-01T00:07:44;8.80;99.90
9151;DHT22;4610;50.006;7.490;2023-04-01T00:10:12;8.80;99.90
9151;DHT22;4610;50.006;7.490;2023-04-01T00:12:40;8.80;99.90
9151;DHT22;4610;50.006;7.490;2023-04-01T00:15:09;8.90;99.90
9151;DHT22;4610;50.006;7.490;2023-04-01T00:17:38;8.80;99.90
9151;DHT22;4610;50.006;7.490;2023-04-01T00:20:06;8.80;99.90
9151;DHT22;4610;50.006;7.490;2023-04-01T00:22:33;8.80;99.90
9151;DHT22;4610;50.006;7.490;2023-04-01T00:25:00;8.80;99.90
9151;DHT22;4610;50.006;7.490;2023-04-01T00:27:27;8.80;99.90
9151;DHT22;4610;50.006;7.490;2023-04-01T00:29:54;8.80;99.90
9151;DHT22;4610;50.006;7.490;2023-04-01T00:32:21;8.70;99.90
9151;DHT22;4610;50.006;7.490;2023-04-01T00:34:51;8.70;99.90
9151;DHT22;4610;50.006;7.490;2023-04-01T00:37:18;8.60;99.90
9151;DHT22;4610;50.006;7.490;2023-04-01T00:39:46;8.60;99.90
9151;DHT22;4610;50.006;7.490;2023-04-01T00:42:14;8.60;99.90
9151;DHT22;4610;50.006;7.490;2023-04-01T00:44:41;8.60;99.90
9151;DHT22;4610;50.006;7.490;2023-04-01T00:47:09;8.60;99.90
9151;DHT22;4610;50.006;7.490;2023-04-01T00:49:37;8.60;99.90
9151;DHT22;4610;50.006;7.490;2023-04-01T00:52:08;8.60;99.90
9151;DHT22;4610;50.006;7.490;2023-04-01T00:54:38;8.60;99.90
9151;DHT22;4610;50.006;7.490;2023-04-01T00:57:11;8.60;99.90
9151;DHT22;4610;50.006;7.490;2023-04-01T00:59:42;8.60;99.90
9151;DHT22;4610;50.006;7.490;2023-04-01T01:02:11;8.60;99.90
9151;DHT22;4610;50.006;7.490;2023-04-01T01:04:38;8.60;99.90
9151;DHT22;4610;50.006;7.490;2023-04-01T01:07:15;8.60;99.90
9151;DHT22;4610;50.006;7.490;2023-04-01T01:09:52;8.60;99.90
9151;DHT22;4610;50.006;7.490;2023-04-01T01:12:25;8.60;99.90
9151;DHT22;4610;50.006;7.490;2023-04-01T01:15:01;8.60;99.90
9151;DHT22;4610;50.006;7.490;2023-04-01T01:17:38;8.70;99.90
9151;DHT22;4610;50.006;7.490;2023-04-01T01:20:39;8.60;99.90
9151;DHT22;4610;50.006;7.490;2023-04-01T01:23:28;8.70;99.90
9151;DHT22;4610;50.006;7.490;2023-04-01T01:26:09;8.70;99.90
9151;DHT22;4610;50.006;7.490;2023-04-01T01:28:47;8.80;99.90
9151;DHT22;4610;50.006;7.490;2023-04-01T01:31:20;8.80;99.90
9151;DHT22;4610;50.006;7.490;2023-04-01T01:33:57;8.80;99.90
9151;DHT22;4610;50.006;7.490;2023-04-01T01:36:31;8.80;99.90
9151;DHT22;4610;50.006;7.490;2023-04-01T01:39:00;8.80;99.90
9151;DHT22;4610;50.006;7.490;2023-04-01T01:41:28;8.70;99.90
9151;DHT22;4610;50.006;7.490;2023-04-01T01:43:56;8.70;99.90
9151;DHT22;4610;50.006;7.490;2023-04-01T01:46:26;8.70;99.90
9151;DHT22;4610;50.006;7.490;2023-04-01T01:48:55;8.70;99.90
9151;DHT22;4610;50.006;7.490;2023-04-01T01:51:23;8.80;99.90
9151;DHT22;4610;50.006;7.490;2023-04-01T01:53:51;8.70;99.90
9151;DHT22;4610;50.006;7.490;2023-04-01T01:56:21;8.80;99.90
9151;DHT22;4610;50.006;7.490;2023-04-01T01:58:50;8.80;99.90
9151;DHT22;4610;50.006;7.490;2023-04-01T02:01:21;8.70;99.90
9151;DHT22;4610;50.006;7.490;2023-04-01T02:03:50;8.70;99.90
9151;DHT22;4610;50.006;7.490;2023-04-01T02:06:19;8.70;99.90
9151;DHT22;4610;50.006;7.490;2023-04-01T02:08:52;8.70;99.90
9151;DHT22;4610;50.006;7.490;2023-04-01T02:11:24;8.80;99.90
9151;DHT22;4610;50.006;7.490;2023-04-01T02:13:54;8.80;99.90
9151;DHT22;4610;50.006;7.490;2023-04-01T02:16:27;8.70;99.90
9151;DHT22;4610;50.006;7.490;2023-04-01T02:18:55;8.70;99.90
9151;DHT22;4610;50.006;7.490;2023-04-01T02:21:27;8.60;99.90
9151;DHT22;4610;50.006;7.490;2023-04-01T02:23:56;8.60;99.90
9151;DHT22;4610;50.006;7.490;2023-04-01T02:26:25;8.60;99.90
9151;DHT22;4610;50.006;7.490;2023-04-01T02:28:53;8.60;99.90
9151;DHT22;4610;50.006;7.490;2023-04-01T02:31:20;8.60;99.90
9151;DHT22;4610;50.006;7.490;2023-04-01T02:33:48;8.60;99.90
9151;DHT22;4610;50.006;7.490;2023-04-01T02:36:15;8.70;99.90
9151;DHT22;4610;50.006;7.490;2023-04-01T02:38:43;8.60;99.90
9151;DHT22;4610;50.006;7.490;2023-04-01T02:41:12;8.60;99.90
9151;DHT22;4610;50.006;7.490;2023-04-01T02:43:39;8.50;99.90
9151;DHT22;4610;50.006;7.490;2023-04-01T02:46:06;8.50;99.90
9151;DHT22;4610;50.006;7.490;2023-04-01T02:48:32;8.50;99.90
9151;DHT22;4610;50.006;7.490;2023-04-01T02:50:59;8.50;99.90
9151;DHT22;4610;50.006;7.490;2023-04-01T02:53:26;8.50;99.90
9151;DHT22;4610;50.006;7.490;2023-04-01T02:55:53;8.50;99.90
9151;DHT22;4610;50.006;7.490;2023-04-01T02:58:21;8.50;99.90
9151;DHT22;4610;50.006;7.490;2023-04-01T03:00:47;8.50;99.90
9151;DHT22;4610;50.006;7.490;2023-04-01T03:03:14;8.50;99.90
9151;DHT22;4610;50.006;7.490;2023-04-01T03:05:41;8.50;99.90
9151;DHT22;4610;50.006;7.490;2023-04-01T03:08:08;8.40;99.90
9151;DHT22;4610;50.006;7.490;2023-04-01T03:10:35;8.50;99.90
9151;DHT22;4610;50.006;7.490;2023-04-01T03:13:02;8.50;99.90
9151;DHT22;4610;50.006;7.490;2023-04-01T03:15:30;8.40;99.90
9151;DHT22;4610;50.006;7.490;2023-04-01T03:17:57;8.50;99.90
9151;DHT22;4610;50.006;7.490;2023-04-01T03:20:24;8.40;99.90
9151;DHT22;4610;50.006;7.490;2023-04-01T03:22:51;8.40;99.90
9151;DHT22;4610;50.006;7.490;2023-04-01T03:25:17;8.40;99.90
9151;DHT22;4610;50.006;7.490;2023-04-01T03:27:44;8.40;99.90
9151;DHT22;4610;50.006;7.490;2023-04-01T03:30:11;8.40;99.90
9151;DHT22;4610;50.006;7.490;2023-04-01T03:32:39;8.40;99.90
9151;DHT22;4610;50.006;7.490;2023-04-01T03:35:06;8.40;99.90
9151;DHT22;4610;50.006;7.490;2023-04-01T03:37:35;8.40;99.90
9151;DHT22;4610;50.006;7.490;2023-04-01T03:40:01;8.30;99.90
9151;DHT22;4610;50.006;7.490;2023-04-01T03:42:29;8.30;99.90
9151;DHT22;4610;50.006;7.490;2023-04-01T03:44:57;8.20;99.90
9151;DHT22;4610;50.006;7.490;2023-04-01T03:47:24;8.20;99.90
9151;DHT22;4610;50.006;7.490;2023-04-01T03:49:52;8.30;99.90
9151;DHT22;4610;50.006;7.490;2023-04-01T03:52:19;8.40;99.90
9151;DHT22;4610;50.006;7.490;2023-04-01T03:54:46;8.40;99.90
9151;DHT22;4610;50.006;7.490;2023-04-01T03:57:13;8.40;99.90
9151;DHT22;4610;50.006;7.490;2023-04-01T03:59:39;8.40;99.90
9151;DHT22;4610;50.006;7.490;2023-04-01T04:02:06;8.40;99.90
9151;DHT22;4610;50.006;7.490;2023-04-01T04:04:33;8.40;99.90
9151;DHT22;4610;50.006;7.490;2023-04-01T04:07:02;8.30;99.90
9151;DHT22;4610;50.006;7.490;2023-04-01T04:09:30;8.40;99.90
9151;DHT22;4610;50.006;7.490;2023-04-01T04:11:57;8.40;99.90
9151;DHT22;4610;50.006;7.490;2023-04-01T04:14:24;8.40;99.90
9151;DHT22;4610;50.006;7.490;2023-04-01T04:16:50;8.40;99.90
9151;DHT22;4610;50.006;7.490;2023-04-01T04:19:17;8.40;99.90
9151;DHT22;4610;50.006;7.490;2023-04-01T04:21:44;8.40;99.90
9151;DHT22;4610;50.006;7.490;2023-04-01T04:24:12;8.40;99.90
9151;DHT22;4610;50.006;7.490;2023-04-01T04:26:39;8.30;99.90
9151;DHT22;4610;50.006;7.490;2023-04-01T04:29:06;8.30;99.90
9151;DHT22;4610;50.006;7.490;2023-04-01T04:31:32;8.30;99.90
9151;DHT22;4610;50.006;7.490;2023-04-01T04:34:00;8.30;99.90
9151;DHT22;4610;50.006;7.490;2023-04-01T04:36:27;8.30;99.90
9151;DHT22;4610;50.006;7.490;2023-04-01T04:38:54;8.30;99.90
9151;DHT22;4610;50.006;7.490;2023-04-01T04:41:22;8.30;99.90
9151;DHT22;4610;50.006;7.490;2023-04-01T04:43:50;8.30;99.90
9151;DHT22;4610;50.006;7.490;2023-04-01T04:46:17;8.20;99.90
9151;DHT22;4610;50.006;7.490;2023-04-01T04:48:44;8.20;99.90
9151;DHT22;4610;50.006;7.490;2023-04-01T04:51:13;8.20;99.90
9151;DHT22;4610;50.006;7.490;2023-04-01T04:53:41;8.20;99.90
9151;DHT22;4610;50.006;7.490;2023-04-01T04:56:07;8.20;99.90
9151;DHT22;4610;50.006;7.490;2023-04-01T04:58:36;8.20;99.90
9151;DHT22;4610;50.006;7.490;2023-04-01T05:01:06;8.30;99.90
9151;DHT22;4610;50.006;7.490;2023-04-01T05:03:33;8.30;99.90
9151;DHT22;4610;50.006;7.490;2023-04-01T05:06:00;8.30;99.90
9151;DHT22;4610;50.006;7.490;2023-04-01T05:08:26;8.20;99.90
9151;DHT22;4610;50.006;7.490;2023-04-01T05:10:53;8.20;99.90
9151;DHT22;4610;50.006;7.490;2023-04-01T05:13:20;8.20;99.90
9151;DHT22;4610;50.006;7.490;2023-04-01T05:15:48;8.20;99.90
9151;DHT22;4610;50.006;7.490;2023-04-01T05:18:14;8.20;99.90
9151;DHT22;4610;50.006;7.490;2023-04-01T05:20:46;8.30;99.90
9151;DHT22;4610;50.006;7.490;2023-04-01T05:23:14;8.30;99.90
9151;DHT22;4610;50.006;7.490;2023-04-01T05:25:40;8.30;99.90
9151;DHT22;4610;50.006;7.490;2023-04-01T05:28:07;8.20;99.90
9151;DHT22;4610;50.006;7.490;2023-04-01T05:30:34;8.20;99.90
9151;DHT22;4610;50.006;7.490;2023-04-01T05:33:02;8.20;99.90
9151;DHT22;4610;50.006;7.490;2023-04-01T05:35:29;8.20;99.90
9151;DHT22;4610;50.006;7.490;2023-04-01T05:37:56;8.20;99.90
9151;DHT22;4610;50.006;7.490;2023-04-01T05:40:22;8.30;99.90
9151;DHT22;4610;50.006;7.490;2023-04-01T05:42:49;8.30;99.90
9151;DHT22;4610;50.006;7.490;2023-04-01T05:45:16;8.30;99.90
9151;DHT22;4610;50.006;7.490;2023-04-01T05:47:43;8.30;99.90
9151;DHT22;4610;50.006;7.490;2023-04-01T05:50:11;8.30;99.90
9151;DHT22;4610;50.006;7.490;2023-04-01T05:52:38;8.40;99.90
9151;DHT22;4610;50.006;7.490;2023-04-01T05:55:05;8.40;99.90
9151;DHT22;4610;50.006;7.490;2023-04-01T05:57:32;8.40;99.90
9151;DHT22;4610;50.006;7.490;2023-04-01T05:59:59;8.40;99.90
9151;DHT22;4610;50.006;7.490;2023-04-01T06:02:26;8.40;99.90
9151;DHT22;4610;50.006;7.490;2023-04-01T06:05:00;8.50;99.90
9151;DHT22;4610;50.006;7.490;2023-04-01T06:07:31;8.50;99.90
9151;DHT22;4610;50.006;7.490;2023-04-01T06:09:57;8.50;99.90
9151;DHT22;4610;50.006;7.490;2023-04-01T06:12:44;8.50;99.90
9151;DHT22;4610;50.006;7.490;2023-04-01T06:15:25;8.60;99.90
9151;DHT22;4610;50.006;7.490;2023-04-01T06:18:17;8.70;99.90
9151;DHT22;4610;50.006;7.490;2023-04-01T06:20:52;8.80;99.90
9151;DHT22;4610;50.006;7.490;2023-04-01T06:23:51;8.80;99.90
9151;DHT22;4610;50.006;7.490;2023-04-01T06:26:33;8.80;99.90
9151;DHT22;4610;50.006;7.490;2023-04-01T06:29:22;8.80;99.90
9151;DHT22;4610;50.006;7.490;2023-04-01T06:32:12;8.80;99.90
9151;DHT22;4610;50.006;7.490;2023-04-01T06:38:00;8.80;99.90
9151;DHT22;4610;50.006;7.490;2023-04-01T06:40:45;8.80;99.90
9151;DHT22;4610;50.006;7.490;2023-04-01T06:43:21;8.90;99.90
9151;DHT22;4610;50.006;7.490;2023-04-01T06:45:55;8.90;99.90
9151;DHT22;4610;50.006;7.490;2023-04-01T06:48:40;9.00;99.90
9151;DHT22;4610;50.006;7.490;2023-04-01T06:51:17;9.10;99.90
9151;DHT22;4610;50.006;7.490;2023-04-01T06:53:54;9.20;99.90
9151;DHT22;4610;50.006;7.490;2023-04-01T06:56:26;9.30;99.90
9151;DHT22;4610;50.006;7.490;2023-04-01T06:58:56;9.40;99.90
9151;DHT22;4610;50.006;7.490;2023-04-01T07:01:27;9.50;99.90
9151;DHT22;4610;50.006;7.490;2023-04-01T07:03:58;9.70;99.90
9151;DHT22;4610;50.006;7.490;2023-04-01T07:06:30;9.90;99.90
9151;DHT22;4610;50.006;7.490;2023-04-01T07:08:59;9.90;99.90
9151;DHT22;4610;50.006;7.490;2023-04-01T07:11:32;9.80;99.90
9151;DHT22;4610;50.006;7.490;2023-04-01T07:14:01;9.70;99.90
9151;DHT22;4610;50.006;7.490;2023-04-01T07:16:31;9.70;99.90
9151;DHT22;4610;50.006;7.490;2023-04-01T07:19:03;9.70;99.90
9151;DHT22;4610;50.006;7.490;2023-04-01T07:21:35;9.70;99.90
9151;DHT22;4610;50.006;7.490;2023-04-01T07:24:05;9.80;99.90
9151;DHT22;4610;50.006;7.490;2023-04-01T07:26:34;9.80;99.90
9151;DHT22;4610;50.006;7.490;2023-04-01T07:29:01;9.90;99.90
9151;DHT22;4610;50.006;7.490;2023-04-01T07:31:39;9.80;99.90
9151;DHT22;4610;50.006;7.490;2023-04-01T07:34:11;9.70;99.90
9151;DHT22;4610;50.006;7.490;2023-04-01T07:36:43;9.70;99.90
9151;DHT22;4610;50.006;7.490;2023-04-01T07:39:24;9.70;99.90
9151;DHT22;4610;50.006;7.490;2023-04-01T07:42:00;9.70;99.90
9151;DHT22;4610;50.006;7.490;2023-04-01T07:44:33;9.70;99.90
9151;DHT22;4610;50.006;7.490;2023-04-01T07:47:28;9.60;99.90
9151;DHT22;4610;50.006;7.490;2023-04-01T07:50:06;9.60;99.90
9151;DHT22;4610;50.006;7.490;2023-04-01T07:52:40;9.60;99.90
9151;DHT22;4610;50.006;7.490;2023-04-01T07:55:16;9.70;99.90
9151;DHT22;4610;50.006;7.490;2023-04-01T07:57:51;9.60;99.90
9151;DHT22;4610;50.006;7.490;2023-04-01T08:00:21;9.70;99.90
9151;DHT22;4610;50.006;7.490;2023-04-01T08:03:01;9.70;99.90
9151;DHT22;4610;50.006;7.490;2023-04-01T08:05:34;9.70;99.90
9151;DHT22;4610;50.006;7.490;2023-04-01T08:08:12;9.70;99.90
9151;DHT22;4610;50.006;7.490;2023-04-01T08:10:46;9.70;99.90
9151;DHT22;4610;50.006;7.490;2023-04-01T08:13:23;9.60;99.90
9151;DHT22;4610;50.006;7.490;2023-04-01T08:15:57;9.60;99.90
9151;DHT22;4610;50.006;7.490;2023-04-01T08:18:33;9.60;99.90
9151;DHT22;4610;50.006;7.490;2023-04-01T08:21:06;9.50;99.90
9151;DHT22;4610;50.006;7.490;2023-04-01T08:23:38;9.50;99.90
9151;DHT22;4610;50.006;7.490;2023-04-01T08:26:13;9.50;99.90
9151;DHT22;4610;50.006;7.490;2023-04-01T08:28:45;9.50;99.90
9151;DHT22;4610;50.006;7.490;2023-04-01T08:31:18;9.50;99.90
9151;DHT22;4610;50.006;7.490;2023-04-01T08:33:47;9.50;99.90
9151;DHT22;4610;50.006;7.490;2023-04-01T08:36:17;9.50;99.90
9151;DHT22;4610;50.006;7.490;2023-04-01T08:38:51;9.60;99.90
9151;DHT22;4610;50.006;7.490;2023-04-01T08:44:32;9.70;99.90
9151;DHT22;4610;50.006;7.490;2023-04-01T08:47:20;9.80;99.90
9151;DHT22;4610;50.006;7.490;2023-04-01T08:50:19;9.70;99.90
9151;DHT22;4610;50.006;7.490;2023-04-01T08:52:57;9.60;99.90
9151;DHT22;4610;50.006;7.490;2023-04-01T08:55:38;9.60;99.90
9151;DHT22;4610;50.006;7.490;2023-04-01T09:01:13;9.50;99.90
9151;DHT22;4610;50.006;7.490;2023-04-01T09:03:58;9.60;99.90
9151;DHT22;4610;50.006;7.490;2023-04-01T09:06:33;9.60;99.90
9151;DHT22;4610;50.006;7.490;2023-04-01T09:09:17;9.70;99.90
9151;DHT22;4610;50.006;7.490;2023-04-01T09:12:15;9.70;99.90
9151;DHT22;4610;50.006;7.490;2023-04-01T09:15:14;9.80;99.90
9151;DHT22;4610;50.006;7.490;2023-04-01T09:18:13;9.90;99.90
9151;DHT22;4610;50.006;7.490;2023-04-01T09:20:57;9.90;99.90
9151;DHT22;4610;50.006;7.490;2023-04-01T09:23:46;9.90;99.90
9151;DHT22;4610;50.006;7.490;2023-04-01T09:26:34;9.80;99.90
9151;DHT22;4610;50.006;7.490;2023-04-01T09:29:19;9.90;99.90
9151;DHT22;4610;50.006;7.490;2023-04-01T09:32:12;9.90;99.90
9151;DHT22;4610;50.006;7.490;2023-04-01T09:34:57;10.00;99.90
9151;DHT22;4610;50.006;7.490;2023-04-01T09:37:35;10.20;99.90
9151;DHT22;4610;50.006;7.490;2023-04-01T09:40:16;10.40;99.90
9151;DHT22;4610;50.006;7.490;2023-04-01T09:42:55;10.60;99.90
9151;DHT22;4610;50.006;7.490;2023-04-01T09:45:37;10.60;99.90
9151;DHT22;4610;50.006;7.490;2023-04-01T09:48:30;10.60;99.90
9151;DHT22;4610;50.006;7.490;2023-04-01T09:51:13;10.60;99.90
9151;DHT22;4610;50.006;7.490;2023-04-01T09:53:53;10.50;99.90
9151;DHT22;4610;50.006;7.490;2023-04-01T09:56:34;10.50;99.90
9151;DHT22;4610;50.006;7.490;2023-04-01T09:59:32;10.60;99.90
9151;DHT22;4610;50.006;7.490;2023-04-01T10:02:33;10.70;99.90
9151;DHT22;4610;50.006;7.490;2023-04-01T10:11:21;11.00;99.90
9151;DHT22;4610;50.006;7.490;2023-04-01T10:17:24;11.20;99.90
9151;DHT22;4610;50.006;7.490;2023-04-01T10:20:14;11.20;99.90
9151;DHT22;4610;50.006;7.490;2023-04-01T10:23:03;11.20;99.90
9151;DHT22;4610;50.006;7.490;2023-04-01T10:26:16;11.10;99.90
9151;DHT22;4610;50.006;7.490;2023-04-01T10:29:02;11.00;99.90
9151;DHT22;4610;50.006;7.490;2023-04-01T10:31:50;11.00;99.90
9151;DHT22;4610;50.006;7.490;2023-04-01T10:35:03;10.90;99.90
9151;DHT22;4610;50.006;7.490;2023-04-01T10:37:50;11.00;99.90
9151;DHT22;4610;50.006;7.490;2023-04-01T10:40:37;10.80;99.90
9151;DHT22;4610;50.006;7.490;2023-04-01T10:43:40;10.90;99.90
9151;DHT22;4610;50.006;7.490;2023-04-01T10:46:46;10.90;99.90
9151;DHT22;4610;50.006;7.490;2023-04-01T10:49:46;11.00;99.90
9151;DHT22;4610;50.006;7.490;2023-04-01T10:55:37;11.10;99.90
9151;DHT22;4610;50.006;7.490;2023-04-01T10:58:37;11.10;99.90
9151;DHT22;4610;50.006;7.490;2023-04-01T11:01:35;11.10;99.90
9151;DHT22;4610;50.006;7.490;2023-04-01T11:04:34;11.00;99.90
9151;DHT22;4610;50.006;7.490;2023-04-01T11:07:41;11.00;99.90
9151;DHT22;4610;50.006;7.490;2023-04-01T11:14:03;10.90;99.90
9151;DHT22;4610;50.006;7.490;2023-04-01T11:20:13;10.80;99.90
9151;DHT22;4610;50.006;7.490;2023-04-01T11:22:56;10.80;99.90
9151;DHT22;4610;50.006;7.490;2023-04-01T11:28:44;10.90;99.90
9151;DHT22;4610;50.006;7.490;2023-04-01T11:31:26;11.00;99.90
9151;DHT22;4610;50.006;7.490;2023-04-01T11:34:01;11.10;99.90
9151;DHT22;4610;50.006;7.490;2023-04-01T11:36:39;11.20;99.90
9151;DHT22;4610;50.006;7.490;2023-04-01T11:39:27;11.30;99.90
9151;DHT22;4610;50.006;7.490;2023-04-01T11:42:03;11.30;99.90
9151;DHT22;4610;50.006;7.490;2023-04-01T11:44:39;11.40;99.90
9151;DHT22;4610;50.006;7.490;2023-04-01T11:47:37;11.60;99.90
9151;DHT22;4610;50.006;7.490;2023-04-01T11:50:18;11.80;99.90
9151;DHT22;4610;50.006;7.490;2023-04-01T11:53:06;12.00;99.90
9151;DHT22;4610;50.006;7.490;2023-04-01T11:55:44;12.20;99.90
9151;DHT22;4610;50.006;7.490;2023-04-01T11:58:34;12.10;99.90
9151;DHT22;4610;50.006;7.490;2023-04-01T12:06:53;12.40;99.90
9151;DHT22;4610;50.006;7.490;2023-04-01T12:09:35;12.40;99.90
9151;DHT22;4610;50.006;7.490;2023-04-01T12:12:13;12.40;99.90
9151;DHT22;4610;50.006;7.490;2023-04-01T12:14:49;12.30;99.90
9151;DHT22;4610;50.006;7.490;2023-04-01T12:17:31;12.30;99.90
9151;DHT22;4610;50.006;7.490;2023-04-01T12:20:20;12.20;99.90
9151;DHT22;4610;50.006;7.490;2023-04-01T12:22:56;12.20;99.90
9151;DHT22;4610;50.006;7.490;2023-04-01T12:25:39;12.20;99.90
9151;DHT22;4610;50.006;7.490;2023-04-01T12:28:15;12.30;99.90
9151;DHT22;4610;50.006;7.490;2023-04-01T12:31:02;12.30;99.90
9151;DHT22;4610;50.006;7.490;2023-04-01T12:33:52;12.10;99.90
9151;DHT22;4610;50.006;7.490;2023-04-01T12:36:38;12.10;99.90
9151;DHT22;4610;50.006;7.490;2023-04-01T12:42:09;12.10;99.90
9151;DHT22;4610;50.006;7.490;2023-04-01T12:44:51;12.20;99.90
9151;DHT22;4610;50.006;7.490;2023-04-01T12:47:42;12.20;99.90
9151;DHT22;4610;50.006;7.490;2023-04-01T12:50:28;12.20;99.90
9151;DHT22;4610;50.006;7.490;2023-04-01T12:55:51;12.00;99.90
9151;DHT22;4610;50.006;7.490;2023-04-01T13:01:28;12.10;99.90
9151;DHT22;4610;50.006;7.490;2023-04-01T13:09:49;12.20;99.90
9151;DHT22;4610;50.006;7.490;2023-04-01T13:12:35;12.10;99.90
9151;DHT22;4610;50.006;7.490;2023-04-01T13:15:13;12.10;99.90
9151;DHT22;4610;50.006;7.490;2023-04-01T13:17:47;12.00;99.90
9151;DHT22;4610;50.006;7.490;2023-04-01T13:20:25;11.90;99.90
9151;DHT22;4610;50.006;7.490;2023-04-01T13:23:01;11.80;99.90
9151;DHT22;4610;50.006;7.490;2023-04-01T13:25:36;11.80;99.90
9151;DHT22;4610;50.006;7.490;2023-04-01T13:28:10;11.80;99.90
9151;DHT22;4610;50.006;7.490;2023-04-01T13:30:45;11.80;99.90
9151;DHT22;4610;50.006;7.490;2023-04-01T13:33:20;11.70;99.90
9151;DHT22;4610;50.006;7.490;2023-04-01T13:36:02;11.60;99.90
9151;DHT22;4610;50.006;7.490;2023-04-01T13:38:51;11.50;99.90
9151;DHT22;4610;50.006;7.490;2023-04-01T13:41:33;11.60;99.90
9151;DHT22;4610;50.006;7.490;2023-04-01T13:44:11;11.60;99.90
9151;DHT22;4610;50.006;7.490;2023-04-01T13:46:59;11.50;99.90
9151;DHT22;4610;50.006;7.490;2023-04-01T13:52:38;11.50;99.90
9151;DHT22;4610;50.006;7.490;2023-04-01T13:55:34;11.50;99.90
9151;DHT22;4610;50.006;7.490;2023-04-01T14:01:13;11.30;99.90
9151;DHT22;4610;50.006;7.490;2023-04-01T14:04:10;11.30;99.90
9151;DHT22;4610;50.006;7.490;2023-04-01T14:06:54;11.50;99.90
9151;DHT22;4610;50.006;7.490;2023-04-01T14:09:45;11.80;99.90
9151;DHT22;4610;50.006;7.490;2023-04-01T14:12:25;12.00;99.90
9151;DHT22;4610;50.006;7.490;2023-04-01T14:15:04;12.10;99.90
9151;DHT22;4610;50.006;7.490;2023-04-01T14:17:46;12.10;99.90
9151;DHT22;4610;50.006;7.490;2023-04-01T14:20:26;12.10;99.90
9151;DHT22;4610;50.006;7.490;2023-04-01T14:23:12;12.00;99.90
9151;DHT22;4610;50.006;7.490;2023-04-01T14:26:04;11.90;99.90
9151;DHT22;4610;50.006;7.490;2023-04-01T14:28:39;12.00;99.90
9151;DHT22;4610;50.006;7.490;2023-04-01T14:31:34;12.40;99.90
9151;DHT22;4610;50.006;7.490;2023-04-01T14:34:15;12.40;99.90
9151;DHT22;4610;50.006;7.490;2023-04-01T14:37:01;12.30;99.90
9151;DHT22;4610;50.006;7.490;2023-04-01T14:39:43;11.90;99.90
9151;DHT22;4610;50.006;7.490;2023-04-01T14:42:21;11.70;99.90
9151;DHT22;4610;50.006;7.490;2023-04-01T14:45:07;11.60;99.90
9151;DHT22;4610;50.006;7.490;2023-04-01T14:47:47;11.50;99.90
9151;DHT22;4610;50.006;7.490;2023-04-01T14:50:17;11.50;99.90
9151;DHT22;4610;50.006;7.490;2023-04-01T14:52:55;11.40;99.90
9151;DHT22;4610;50.006;7.490;2023-04-01T14:55:31;11.40;99.90
9151;DHT22;4610;50.006;7.490;2023-04-01T14:58:07;11.40;99.90
9151;DHT22;4610;50.006;7.490;2023-04-01T15:00:50;11.20;99.90
9151;DHT22;4610;50.006;7.490;2023-04-01T15:03:25;11.20;99.90
9151;DHT22;4610;50.006;7.490;2023-04-01T15:05:59;11.10;99.90
9151;DHT22;4610;50.006;7.490;2023-04-01T15:08:32;11.00;99.90
9151;DHT22;4610;50.006;7.490;2023-04-01T15:11:19;11.10;99.90
9151;DHT22;4610;50.006;7.490;2023-04-01T15:16:55;10.90;99.90
9151;DHT22;4610;50.006;7.490;2023-04-01T15:19:36;10.80;99.90
9151;DHT22;4610;50.006;7.490;2023-04-01T15:22:20;10.80;99.90
9151;DHT22;4610;50.006;7.490;2023-04-01T15:25:01;10.80;99.90
9151;DHT22;4610;50.006;7.490;2023-04-01T15:27:37;10.80;99.90
9151;DHT22;4610;50.006;7.490;2023-04-01T15:30:23;10.90;99.90
9151;DHT22;4610;50.006;7.490;2023-04-01T15:33:12;10.90;99.90
9151;DHT22;4610;50.006;7.490;2023-04-01T15:35:46;10.90;99.90
9151;DHT22;4610;50.006;7.490;2023-04-01T15:38:26;10.90;99.90
9151;DHT22;4610;50.006;7.490;2023-04-01T15:41:01;11.00;99.90
9151;DHT22;4610;50.006;7.490;2023-04-01T15:43:39;11.10;99.90
9151;DHT22;4610;50.006;7.490;2023-04-01T15:46:28;11.10;99.90
9151;DHT22;4610;50.006;7.490;2023-04-01T15:49:07;11.00;99.90
9151;DHT22;4610;50.006;7.490;2023-04-01T15:52:03;11.00;99.90
9151;DHT22;4610;50.006;7.490;2023-04-01T15:54:46;11.00;99.90
9151;DHT22;4610;50.006;7.490;2023-04-01T15:57:23;10.90;99.90
9151;DHT22;4610;50.006;7.490;2023-04-01T16:00:02;10.80;99.90
9151;DHT22;4610;50.006;7.490;2023-04-01T16:02:33;10.80;99.90
9151;DHT22;4610;50.006;7.490;2023-04-01T16:05:05;10.80;99.90
9151;DHT22;4610;50.006;7.490;2023-04-01T16:07:55;10.90;99.90
9151;DHT22;4610;50.006;7.490;2023-04-01T16:10:48;11.00;99.90
9151;DHT22;4610;50.006;7.490;2023-04-01T16:13:30;10.80;99.90
9151;DHT22;4610;50.006;7.490;2023-04-01T16:16:06;10.70;99.90
9151;DHT22;4610;50.006;7.490;2023-04-01T16:19:00;10.70;99.90
9151;DHT22;4610;50.006;7.490;2023-04-01T16:21:37;10.70;99.90
9151;DHT22;4610;50.006;7.490;2023-04-01T16:24:13;10.70;99.90
9151;DHT22;4610;50.006;7.490;2023-04-01T16:26:49;10.70;99.90
9151;DHT22;4610;50.006;7.490;2023-04-01T16:29:24;10.70;99.90
9151;DHT22;4610;50.006;7.490;2023-04-01T16:31:55;10.70;99.90
9151;DHT22;4610;50.006;7.490;2023-04-01T16:34:31;10.70;99.90
9151;DHT22;4610;50.006;7.490;2023-04-01T16:37:06;10.70;99.90
9151;DHT22;4610;50.006;7.490;2023-04-01T16:39:43;10.70;99.90
9151;DHT22;4610;50.006;7.490;2023-04-01T16:42:26;10.50;99.90
9151;DHT22;4610;50.006;7.490;2023-04-01T16:45:01;10.50;99.90
9151;DHT22;4610;50.006;7.490;2023-04-01T16:47:30;10.40;99.90
9151;DHT22;4610;50.006;7.490;2023-04-01T16:50:06;10.40;99.90
9151;DHT22;4610;50.006;7.490;2023-04-01T16:52:47;10.40;99.90
9151;DHT22;4610;50.006;7.490;2023-04-01T16:55:17;10.40;99.90
9151;DHT22;4610;50.006;7.490;2023-04-01T16:57:49;10.40;99.90
9151;DHT22;4610;50.006;7.490;2023-04-01T17:00:24;10.40;99.90
9151;DHT22;4610;50.006;7.490;2023-04-01T17:03:01;10.40;99.90
9151;DHT22;4610;50.006;7.490;2023-04-01T17:05:41;10.40;99.90
9151;DHT22;4610;50.006;7.490;2023-04-01T17:08:17;10.30;99.90
9151;DHT22;4610;50.006;7.490;2023-04-01T17:10:51;10.30;99.90
9151;DHT22;4610;50.006;7.490;2023-04-01T17:13:35;10.30;99.90
9151;DHT22;4610;50.006;7.490;2023-04-01T17:16:28;10.20;99.90
9151;DHT22;4610;50.006;7.490;2023-04-01T17:19:05;10.10;99.90
9151;DHT22;4610;50.006;7.490;2023-04-01T17:21:47;10.10;99.90
9151;DHT22;4610;50.006;7.490;2023-04-01T17:24:28;10.00;99.90
9151;DHT22;4610;50.006;7.490;2023-04-01T17:27:04;10.00;99.90
9151;DHT22;4610;50.006;7.490;2023-04-01T17:29:55;10.00;99.90
9151;DHT22;4610;50.006;7.490;2023-04-01T17:32:34;10.00;99.90
9151;DHT22;4610;50.006;7.490;2023-04-01T17:35:10;10.00;99.90
9151;DHT22;4610;50.006;7.490;2023-04-01T17:37:45;9.90;99.90
9151;DHT22;4610;50.006;7.490;2023-04-01T17:40:32;9.90;99.90
9151;DHT22;4610;50.006;7.490;2023-04-01T17:43:09;9.90;99.90
9151;DHT22;4610;50.006;7.490;2023-04-01T17:45:45;9.80;99.90
9151;DHT22;4610;50.006;7.490;2023-04-01T17:48:24;9.80;99.90
9151;DHT22;4610;50.006;7.490;2023-04-01T17:51:12;9.80;99.90
9151;DHT22;4610;50.006;7.490;2023-04-01T17:53:46;9.80;99.90
9151;DHT22;4610;50.006;7.490;2023-04-01T17:56:32;9.80;99.90
9151;DHT22;4610;50.006;7.490;2023-04-01T17:59:09;9.80;99.90
9151;DHT22;4610;50.006;7.490;2023-04-01T18:01:49;9.80;99.90
9151;DHT22;4610;50.006;7.490;2023-04-01T18:04:49;9.70;99.90
9151;DHT22;4610;50.006;7.490;2023-04-01T18:07:43;9.60;99.90
9151;DHT22;4610;50.006;7.490;2023-04-01T18:10:26;9.40;99.90
9151;DHT22;4610;50.006;7.490;2023-04-01T18:13:31;9.20;99.90